Time;durP1;ratioP1;P1;durP2;ratioP2;P2;SDS_P1;SDS_P2;PMS_P1;PMS_P2;Temp;Humidity;BMP_temperature;BMP_pressure;BME280_temperature;BME280_humidity;BME280_pressure;Samples;Min_cycle;Max_cycle;Signal;HPM_P1;HPM_P2
2021/10/07 00:01:57;;;;;;;13.50;8.30;;;;;;;11.60;62.94;101368.36;93940;1196;80502;-68
2021/10/07 00:04:01;;;;;;;12.20;7.60;;;;;;;11.58;63.04;101372.08;94007;1196;81164;-68
2021/10/07 00:06:05;;;;;;;15.40;8.80;;;;;;;11.54;62.95;101372.52;93968;1196;98038;-65
2021/10/07 00:08:09;;;;;;;13.70;8.60;;;;;;;11.52;62.93;101371.09;94022;1195;87849;-64
2021/10/07 00:10:14;;;;;;;12.60;8.40;;;;;;;11.51;62.89;101369.92;93997;1195;94493;-63
2021/10/07 00:12:18;;;;;;;9.70;7.60;;;;;;;11.50;62.90;101373.55;94006;1196;79778;-64
2021/10/07 00:14:22;;;;;;;10.10;7.50;;;;;;;11.48;62.84;101373.16;94023;1196;80388;-63
2021/10/07 00:16:27;;;;;;;12.00;7.80;;;;;;;11.46;62.82;101371.92;93993;1195;100453;-64
2021/10/07 00:18:36;;;;;;;12.60;8.10;;;;;;;11.45;62.85;101370.15;94056;1196;86505;-64
2021/10/07 00:20:41;;;;;;;10.70;7.90;;;;;;;11.43;62.85;101368.35;93965;1195;93836;-66
2021/10/07 00:22:46;;;;;;;18.10;9.40;;;;;;;11.41;62.88;101367.45;93993;1196;78576;-66
2021/10/07 00:24:50;;;;;;;12.20;8.10;;;;;;;11.39;62.94;101366.13;94054;1195;82435;-65
2021/10/07 00:26:54;;;;;;;11.10;7.70;;;;;;;11.36;63.00;101370.36;94039;1195;100103;-64
2021/10/07 00:29:03;;;;;;;10.40;7.50;;;;;;;11.36;62.95;101368.23;94040;1196;86607;-63
2021/10/07 00:31:13;;;;;;;14.10;8.90;;;;;;;11.35;62.99;101368.49;93968;1196;93339;-64
2021/10/07 00:33:22;;;;;;;12.50;7.20;;;;;;;11.36;63.01;101371.16;93998;1196;79517;-64
2021/10/07 00:40:17;;;;;;;14.60;8.30;;;;;;;11.38;63.07;101376.10;93965;1196;88543;-66
2021/10/07 00:42:22;;;;;;;7.60;6.60;;;;;;;11.39;62.94;101377.63;94012;1195;94889;-66
2021/10/07 00:44:31;;;;;;;9.50;7.30;;;;;;;11.39;62.91;101377.63;94009;1196;79025;-67
2021/10/07 00:46:49;;;;;;;11.90;7.20;;;;;;;11.39;62.91;101376.58;94021;1195;81763;-64
2021/10/07 00:48:53;;;;;;;10.50;7.70;;;;;;;11.36;63.01;101381.59;94019;1195;99839;-64
2021/10/07 00:50:57;;;;;;;12.70;7.60;;;;;;;11.36;63.02;101380.71;93981;1195;87897;-64
2021/10/07 00:53:01;;;;;;;11.20;7.40;;;;;;;11.35;63.06;101380.09;94017;1196;94370;-64
2021/10/07 00:55:08;;;;;;;10.80;7.60;;;;;;;11.30;63.26;101376.89;93966;1196;80706;-64
2021/10/07 00:57:17;;;;;;;11.10;7.80;;;;;;;11.28;63.15;101377.64;94062;1196;82164;-64
2021/10/07 00:59:21;;;;;;;11.00;7.60;;;;;;;11.27;63.23;101377.50;94012;1196;99446;-63
2021/10/07 01:01:26;;;;;;;9.80;7.10;;;;;;;11.23;63.16;101378.61;94013;1196;87829;-64
2021/10/07 01:03:33;;;;;;;14.30;8.30;;;;;;;11.22;63.14;101376.79;94022;1196;94902;-64
2021/10/07 01:05:38;;;;;;;11.10;7.80;;;;;;;11.20;63.12;101377.58;93988;1195;78679;-64
2021/10/07 01:07:42;;;;;;;12.30;7.80;;;;;;;11.18;63.19;101384.88;94028;1196;80592;-66
2021/10/07 01:09:46;;;;;;;11.80;8.00;;;;;;;11.16;63.04;101380.67;94026;1195;100271;-64
2021/10/07 01:11:50;;;;;;;10.80;7.70;;;;;;;11.15;63.07;101381.39;94057;1195;88269;-64
2021/10/07 01:13:56;;;;;;;11.70;6.90;;;;;;;11.12;63.13;101382.39;94003;1196;94044;-64
2021/10/07 01:16:03;;;;;;;11.30;7.50;;;;;;;11.09;63.15;101383.83;94008;1196;79478;-68
2021/10/07 01:18:07;;;;;;;9.10;7.20;;;;;;;11.07;63.17;101380.44;94056;1196;81281;-67
2021/10/07 01:20:13;;;;;;;9.90;6.80;;;;;;;11.06;63.11;101378.71;94011;1195;99960;-64
2021/10/07 01:22:23;;;;;;;10.80;7.50;;;;;;;11.07;63.04;101380.81;94030;1196;88423;-65
2021/10/07 01:24:30;;;;;;;10.90;7.10;;;;;;;11.08;63.08;101381.80;94012;1196;93628;-64
2021/10/07 01:26:34;;;;;;;10.40;7.00;;;;;;;11.10;63.02;101380.30;93974;1196;79137;-67
2021/10/07 01:28:40;;;;;;;11.50;6.80;;;;;;;11.11;62.95;101382.94;94001;1196;82183;-68
2021/10/07 01:30:44;;;;;;;13.20;7.50;;;;;;;11.11;62.84;101384.17;94019;1196;99989;-67
2021/10/07 01:32:49;;;;;;;10.80;7.00;;;;;;;11.09;62.93;101388.12;94012;1195;87572;-67
2021/10/07 01:34:53;;;;;;;10.20;6.60;;;;;;;11.07;62.86;101386.35;93992;1195;94192;-64
2021/10/07 01:36:59;;;;;;;13.10;7.60;;;;;;;11.06;62.85;101386.70;93977;1196;78552;-63
2021/10/07 01:39:03;;;;;;;9.70;7.40;;;;;;;11.06;62.71;101394.13;94070;1187;81455;-65
2021/10/07 01:41:07;;;;;;;11.90;7.20;;;;;;;11.05;62.62;101395.41;93999;1195;98903;-67
2021/10/07 01:43:11;;;;;;;9.30;7.10;;;;;;;11.06;62.62;101399.14;93999;1195;87925;-67
2021/10/07 01:45:15;;;;;;;10.70;7.90;;;;;;;11.07;62.67;101399.10;94012;1196;92971;-65
2021/10/07 01:47:20;;;;;;;10.90;7.10;;;;;;;11.06;62.61;101404.61;94029;1195;78047;-65
2021/10/07 01:49:24;;;;;;;12.40;7.30;;;;;;;11.05;62.63;101405.79;94027;1196;80666;-65
2021/10/07 01:51:28;;;;;;;12.80;7.20;;;;;;;11.02;62.53;101410.05;94051;1196;99796;-64
2021/10/07 01:53:32;;;;;;;10.90;7.90;;;;;;;11.01;62.47;101406.70;94076;1196;87238;-64
2021/10/07 01:55:37;;;;;;;10.70;6.90;;;;;;;11.01;62.50;101408.77;93995;1196;94884;-64
2021/10/07 01:57:44;;;;;;;9.40;7.00;;;;;;;11.00;62.43;101409.02;93995;1195;79770;-65
2021/10/07 01:59:51;;;;;;;11.30;7.70;;;;;;;10.97;62.43;101412.41;94035;1196;81076;-65
2021/10/07 02:01:55;;;;;;;9.40;7.20;;;;;;;10.95;62.30;101407.41;94026;1196;98478;-64
2021/10/07 02:04:01;;;;;;;13.20;7.40;;;;;;;10.95;62.30;101408.52;94043;1195;87251;-65
2021/10/07 02:06:07;;;;;;;10.90;7.50;;;;;;;10.92;62.36;101414.69;94045;1195;93168;-64
2021/10/07 02:08:12;;;;;;;10.70;7.10;;;;;;;10.91;62.35;101413.10;94065;1196;79630;-64
2021/10/07 02:10:19;;;;;;;11.90;7.50;;;;;;;10.88;62.24;101413.77;94079;1196;82953;-67
2021/10/07 02:12:23;;;;;;;12.60;8.40;;;;;;;10.87;62.18;101412.13;94039;1195;98814;-66
2021/10/07 02:14:27;;;;;;;12.30;7.50;;;;;;;10.84;62.12;101415.83;94039;1196;88161;-66
2021/10/07 02:16:33;;;;;;;10.60;7.30;;;;;;;10.82;62.16;101414.63;93988;1196;94010;-64
2021/10/07 02:18:37;;;;;;;10.70;7.20;;;;;;;10.80;62.09;101425.08;94014;1195;78707;-64
2021/10/07 02:20:41;;;;;;;10.50;7.20;;;;;;;10.80;61.99;101423.29;94011;1195;80009;-67
2021/10/07 02:22:45;;;;;;;10.30;7.00;;;;;;;10.78;62.05;101422.05;94009;1196;99956;-67
2021/10/07 02:24:52;;;;;;;10.00;7.20;;;;;;;10.77;62.04;101423.86;94036;1196;86667;-66
2021/10/07 02:26:56;;;;;;;11.20;7.00;;;;;;;10.75;61.90;101427.64;93982;1196;94416;-64
2021/10/07 02:29:00;;;;;;;9.10;7.10;;;;;;;10.73;61.96;101425.67;94032;1196;79991;-64
2021/10/07 02:31:05;;;;;;;9.70;7.10;;;;;;;10.72;62.00;101432.45;94052;1195;80995;-65
2021/10/07 02:33:09;;;;;;;12.20;7.30;;;;;;;10.71;61.97;101432.60;94025;1196;97485;-64
2021/10/07 02:35:15;;;;;;;9.20;7.40;;;;;;;10.69;62.02;101437.28;94038;1196;86995;-68
2021/10/07 02:37:19;;;;;;;12.10;7.80;;;;;;;10.67;61.99;101440.19;94016;1196;93193;-67
2021/10/07 02:39:23;;;;;;;11.10;7.20;;;;;;;10.66;61.94;101438.89;94036;1195;79001;-67
2021/10/07 02:41:28;;;;;;;10.20;7.00;;;;;;;10.64;61.91;101437.95;94033;1196;83345;-66
2021/10/07 02:43:32;;;;;;;11.50;7.00;;;;;;;10.63;61.95;101444.55;93999;1180;98022;-66
2021/10/07 02:45:36;;;;;;;13.20;7.40;;;;;;;10.61;62.05;101449.86;94056;1195;88240;-68
2021/10/07 02:47:46;;;;;;;12.20;7.70;;;;;;;10.60;61.90;101449.83;94049;1195;94525;-67
2021/10/07 02:49:50;;;;;;;11.30;7.20;;;;;;;10.58;61.85;101451.77;94008;1196;79208;-65
2021/10/07 02:51:57;;;;;;;11.10;7.80;;;;;;;10.57;61.85;101452.11;94008;1195;81863;-66
2021/10/07 02:54:01;;;;;;;12.40;7.60;;;;;;;10.55;61.83;101451.89;94028;1196;97849;-67
2021/10/07 02:56:06;;;;;;;11.60;7.20;;;;;;;10.53;61.82;101452.91;94042;1196;86882;-67
2021/10/07 02:58:10;;;;;;;11.10;7.20;;;;;;;10.50;61.90;101450.30;94065;1196;92762;-66
2021/10/07 03:00:18;;;;;;;13.30;7.80;;;;;;;10.48;61.86;101451.08;94075;1190;78665;-66
2021/10/07 03:02:22;;;;;;;11.10;7.80;;;;;;;10.47;61.87;101451.19;94038;1195;80581;-65
2021/10/07 03:04:26;;;;;;;9.50;7.40;;;;;;;10.44;61.93;101454.55;94075;1195;98059;-66
2021/10/07 03:06:31;;;;;;;9.10;7.40;;;;;;;10.43;61.88;101456.27;93964;1195;87663;-66
2021/10/07 03:08:35;;;;;;;11.50;7.80;;;;;;;10.42;61.91;101457.93;94018;1195;93914;-66
2021/10/07 03:10:39;;;;;;;9.50;7.20;;;;;;;10.41;61.88;101455.70;94004;1196;78045;-67
2021/10/07 03:12:43;;;;;;;11.60;8.40;;;;;;;10.40;61.99;101458.48;94049;1196;80852;-67
2021/10/07 03:14:56;;;;;;;14.20;7.40;;;;;;;10.37;62.01;101458.77;94039;1196;98332;-68
2021/10/07 03:17:00;;;;;;;13.40;9.00;;;;;;;10.35;62.01;101458.30;94088;1196;86516;-67
2021/10/07 03:19:04;;;;;;;9.80;7.30;;;;;;;10.33;62.03;101462.48;94050;1196;92033;-66
2021/10/07 03:21:09;;;;;;;10.70;6.50;;;;;;;10.31;61.92;101461.02;93994;1195;79374;-67
2021/10/07 03:23:13;;;;;;;11.10;7.30;;;;;;;10.29;61.95;101463.27;94021;1195;79843;-66
2021/10/07 03:25:17;;;;;;;12.20;8.10;;;;;;;10.26;62.05;101466.40;93735;1196;99273;-68
2021/10/07 03:27:21;;;;;;;12.40;7.60;;;;;;;10.24;61.99;101468.57;93979;1195;86774;-67
2021/10/07 03:29:25;;;;;;;12.60;8.00;;;;;;;10.22;62.13;101472.08;93999;1196;92852;-67
2021/10/07 03:31:30;;;;;;;13.50;8.20;;;;;;;10.21;61.99;101471.30;94035;1195;78017;-68
2021/10/07 03:33:34;;;;;;;11.50;7.30;;;;;;;10.19;62.00;101476.91;94048;1196;82072;-67
2021/10/07 03:35:39;;;;;;;9.30;6.70;;;;;;;10.16;62.01;101479.02;94043;1196;100500;-68
2021/10/07 03:37:43;;;;;;;14.00;7.10;;;;;;;10.14;62.06;101483.54;94081;1195;87389;-68
2021/10/07 03:39:56;;;;;;;14.10;8.40;;;;;;;10.11;62.05;101479.48;94089;1196;92969;-67
2021/10/07 03:42:00;;;;;;;10.60;7.80;;;;;;;10.11;62.06;101481.52;94041;1195;78281;-66
2021/10/07 03:44:06;;;;;;;19.70;10.00;;;;;;;10.08;62.07;101482.25;94074;1196;81370;-66
2021/10/07 03:46:10;;;;;;;13.10;8.20;;;;;;;10.07;62.05;101487.09;94079;1196;100339;-64
2021/10/07 03:48:14;;;;;;;10.00;7.10;;;;;;;10.04;62.05;101487.40;94080;1196;87661;-63
2021/10/07 03:50:18;;;;;;;11.60;8.10;;;;;;;10.02;62.03;101492.86;94001;1196;94390;-67
2021/10/07 03:52:23;;;;;;;12.10;7.80;;;;;;;10.00;62.06;101491.92;93999;1196;79281;-67
2021/10/07 03:54:27;;;;;;;10.00;7.70;;;;;;;9.98;62.13;101494.49;94108;1196;82346;-67
2021/10/07 03:56:31;;;;;;;12.00;7.60;;;;;;;9.95;62.07;101496.81;94044;1196;99731;-67
2021/10/07 03:58:35;;;;;;;16.10;7.80;;;;;;;9.93;62.02;101501.91;94046;1195;86782;-66
2021/10/07 04:00:39;;;;;;;13.70;7.20;;;;;;;9.92;61.84;101498.95;94053;1196;94555;-67
2021/10/07 04:02:46;;;;;;;12.60;8.40;;;;;;;9.90;61.82;101504.01;94052;1196;79833;-67
2021/10/07 04:04:50;;;;;;;13.60;8.40;;;;;;;9.88;61.90;101505.61;94070;1195;81692;-66
2021/10/07 04:06:54;;;;;;;11.40;7.80;;;;;;;9.87;61.89;101506.52;94040;1195;100430;-64
2021/10/07 04:08:58;;;;;;;12.00;7.50;;;;;;;9.83;61.90;101504.19;94071;1196;87840;-63
2021/10/07 04:11:03;;;;;;;16.20;8.10;;;;;;;9.81;61.91;101510.55;94030;1196;94087;-65
2021/10/07 04:13:07;;;;;;;10.30;7.10;;;;;;;9.79;61.94;101508.77;94026;1196;79263;-63
2021/10/07 04:15:11;;;;;;;12.10;7.20;;;;;;;9.79;61.90;101511.69;94046;1195;82394;-63
2021/10/07 04:17:15;;;;;;;10.60;8.00;;;;;;;9.75;61.90;101517.21;94048;1196;99080;-64
2021/10/07 04:19:19;;;;;;;9.70;7.40;;;;;;;9.73;61.90;101515.15;94111;1195;87307;-64
2021/10/07 04:21:24;;;;;;;12.00;7.00;;;;;;;9.72;61.95;101521.04;94022;1196;94665;-64
2021/10/07 04:23:28;;;;;;;13.60;8.20;;;;;;;9.69;61.94;101525.56;94040;1196;79963;-63
2021/10/07 04:25:32;;;;;;;10.70;7.70;;;;;;;9.67;61.95;101523.13;94075;1196;82449;-64
2021/10/07 04:27:36;;;;;;;12.20;8.30;;;;;;;9.65;61.97;101527.68;94067;1195;98398;-65
2021/10/07 04:29:41;;;;;;;11.60;7.70;;;;;;;9.62;61.97;101525.84;94085;1196;88979;-64
2021/10/07 04:31:45;;;;;;;12.40;7.80;;;;;;;9.60;61.93;101533.05;94084;1196;93365;-68
2021/10/07 04:33:50;;;;;;;14.10;7.40;;;;;;;9.58;62.05;101538.81;94090;1196;78786;-68
2021/10/07 04:35:54;;;;;;;11.70;7.80;;;;;;;9.54;62.06;101545.00;94062;1195;80633;-67
2021/10/07 04:37:59;;;;;;;10.40;8.20;;;;;;;9.52;62.08;101548.08;94068;1196;99834;-68
2021/10/07 04:40:06;;;;;;;12.20;8.80;;;;;;;9.49;62.04;101550.46;94059;1195;88522;-67
2021/10/07 04:42:10;;;;;;;12.30;8.40;;;;;;;9.48;61.97;101557.27;94060;1196;94105;-67
2021/10/07 04:44:15;;;;;;;13.00;7.80;;;;;;;9.47;62.05;101559.37;94030;1196;79397;-65
2021/10/07 04:46:21;;;;;;;10.50;8.00;;;;;;;9.47;62.03;101563.11;94060;1195;82207;-67
2021/10/07 04:48:25;;;;;;;11.60;7.70;;;;;;;9.46;62.10;101563.40;94088;1196;99036;-65
2021/10/07 04:50:30;;;;;;;10.80;8.30;;;;;;;9.45;62.02;101570.34;94069;1195;87940;-69
2021/10/07 04:52:37;;;;;;;12.20;7.40;;;;;;;9.42;62.08;101576.88;94071;1195;93992;-70
2021/10/07 04:54:41;;;;;;;11.90;7.80;;;;;;;9.39;62.03;101575.99;94109;1195;79205;-69
2021/10/07 04:56:45;;;;;;;11.60;8.40;;;;;;;9.37;62.03;101581.00;94098;1196;81719;-70
2021/10/07 04:58:50;;;;;;;12.40;7.70;;;;;;;9.35;61.97;101585.73;94117;1196;98917;-70
2021/10/07 05:00:54;;;;;;;10.10;8.20;;;;;;;9.32;62.00;101588.86;94104;1196;88877;-69
2021/10/07 05:02:58;;;;;;;10.60;7.60;;;;;;;9.30;62.00;101592.33;94083;1196;94690;-70
2021/10/07 05:05:03;;;;;;;10.20;7.60;;;;;;;9.30;62.07;101594.35;94133;1196;77189;-70
2021/10/07 05:07:07;;;;;;;12.50;8.20;;;;;;;9.30;62.18;101601.74;94070;1196;80822;-70
2021/10/07 05:09:12;;;;;;;15.00;7.50;;;;;;;9.30;62.03;101608.67;94124;1196;98390;-70
2021/10/07 05:11:16;;;;;;;13.20;8.80;;;;;;;9.30;62.00;101607.25;94092;1195;87940;-70
2021/10/07 05:13:20;;;;;;;13.10;7.80;;;;;;;9.31;62.06;101613.61;94082;1195;94009;-70
2021/10/07 05:15:28;;;;;;;10.90;7.90;;;;;;;9.34;62.09;101615.85;94047;1196;80514;-71
2021/10/07 05:17:36;;;;;;;10.50;7.50;;;;;;;9.35;61.99;101619.00;94058;1196;79789;-70
2021/10/07 05:19:40;;;;;;;11.50;8.00;;;;;;;9.36;61.97;101617.67;94012;1195;98537;-69
2021/10/07 05:21:44;;;;;;;11.70;7.70;;;;;;;9.36;61.93;101622.46;94029;1195;88443;-70
2021/10/07 05:23:49;;;;;;;11.70;7.30;;;;;;;9.36;61.98;101622.09;94125;1196;92767;-71
2021/10/07 05:25:53;;;;;;;11.00;7.80;;;;;;;9.36;61.87;101626.77;94030;1195;77098;-71
2021/10/07 05:27:57;;;;;;;10.40;7.40;;;;;;;9.34;61.89;101619.94;94072;1195;81419;-70
2021/10/07 05:30:09;;;;;;;10.70;7.70;;;;;;;9.34;61.91;101621.59;94079;1195;100581;-70
2021/10/07 05:32:13;;;;;;;15.00;8.20;;;;;;;9.33;61.86;101620.58;94104;1195;87703;-71
2021/10/07 05:34:19;;;;;;;12.70;8.40;;;;;;;9.34;61.71;101621.56;94067;1196;94274;-69
2021/10/07 05:36:23;;;;;;;11.00;7.80;;;;;;;9.36;61.91;101629.15;94062;1196;77675;-70
2021/10/07 05:38:27;;;;;;;11.30;8.00;;;;;;;9.50;61.98;101631.85;94094;1195;80219;-66
2021/10/07 05:40:32;;;;;;;15.10;8.10;;;;;;;9.70;61.89;101633.61;94041;1195;98894;-67
2021/10/07 05:42:36;;;;;;;10.20;7.50;;;;;;;10.05;61.77;101634.73;94059;1196;87528;-66
2021/10/07 05:44:40;;;;;;;13.10;8.30;;;;;;;10.15;61.29;101638.73;94051;1196;93141;-68
2021/10/07 05:46:45;;;;;;;15.20;7.50;;;;;;;9.99;60.85;101645.73;94062;1196;80435;-66
2021/10/07 05:48:49;;;;;;;13.60;8.30;;;;;;;9.86;60.84;101641.11;94081;1196;81633;-67
2021/10/07 05:50:53;;;;;;;11.30;7.90;;;;;;;9.77;60.94;101644.40;94052;1195;99514;-67
2021/10/07 05:52:57;;;;;;;15.60;8.20;;;;;;;9.69;61.05;101649.95;94133;1196;88287;-66
2021/10/07 05:55:03;;;;;;;12.60;8.10;;;;;;;9.67;61.10;101652.62;94044;1195;94381;-69
2021/10/07 05:57:11;;;;;;;11.00;8.10;;;;;;;9.68;61.04;101658.84;94061;1196;79594;-73
2021/10/07 05:59:15;;;;;;;10.30;7.20;;;;;;;9.67;61.06;101659.83;94108;1195;81007;-71
2021/10/07 06:01:23;;;;;;;12.30;8.20;;;;;;;9.65;61.13;101659.11;94065;1195;98733;-68
2021/10/07 06:03:27;;;;;;;12.50;7.90;;;;;;;9.67;61.08;101664.53;94065;1196;87484;-69
2021/10/07 06:05:31;;;;;;;13.50;8.20;;;;;;;9.67;61.09;101663.93;94095;1195;93679;-69
2021/10/07 06:07:36;;;;;;;10.40;7.40;;;;;;;9.73;61.08;101665.57;94114;1196;78637;-69
2021/10/07 06:09:40;;;;;;;12.30;8.10;;;;;;;9.79;61.01;101669.63;94105;1196;81429;-68
2021/10/07 06:11:44;;;;;;;12.80;7.60;;;;;;;9.83;60.87;101667.05;94078;1195;99923;-69
2021/10/07 06:13:51;;;;;;;12.80;8.40;;;;;;;9.87;60.81;101668.05;94138;1196;87228;-67
2021/10/07 06:15:55;;;;;;;12.90;8.70;;;;;;;9.93;60.59;101665.30;94111;1195;93720;-67
2021/10/07 06:18:00;;;;;;;12.80;8.10;;;;;;;10.02;60.63;101668.49;94114;1195;78728;-68
2021/10/07 06:20:19;;;;;;;12.50;8.30;;;;;;;10.17;60.63;101667.88;94170;1195;80058;-69
2021/10/07 06:22:23;;;;;;;11.50;8.30;;;;;;;10.41;60.53;101670.45;94103;1195;99841;-70
2021/10/07 06:24:28;;;;;;;15.30;7.80;;;;;;;10.79;60.45;101671.14;94144;1196;87513;-69
2021/10/07 06:26:32;;;;;;;10.20;7.60;;;;;;;11.12;59.90;101677.21;94066;1195;92806;-67
2021/10/07 06:28:39;;;;;;;12.10;7.80;;;;;;;11.15;59.07;101678.29;94086;1195;80315;-65
2021/10/07 06:30:43;;;;;;;12.60;8.20;;;;;;;11.06;58.76;101681.31;94137;1195;82399;-69
2021/10/07 06:32:49;;;;;;;10.70;7.30;;;;;;;11.09;58.75;101679.73;94096;1195;100029;-69
2021/10/07 06:34:53;;;;;;;15.20;9.00;;;;;;;11.10;58.67;101680.08;94039;1196;87512;-69
2021/10/07 06:37:00;;;;;;;12.70;8.50;;;;;;;11.15;58.61;101682.33;94088;1195;93576;-70
2021/10/07 06:39:06;;;;;;;13.80;8.10;;;;;;;11.18;58.12;101684.11;94086;1196;78595;-70
2021/10/07 06:41:10;;;;;;;13.40;8.80;;;;;;;11.17;58.04;101689.48;94176;1196;80637;-66
2021/10/07 06:43:14;;;;;;;9.60;7.40;;;;;;;11.30;58.06;101697.11;94117;1196;99296;-67
2021/10/07 06:45:18;;;;;;;11.50;8.20;;;;;;;11.40;57.85;101701.32;94102;1195;87245;-70
2021/10/07 06:47:24;;;;;;;10.70;7.60;;;;;;;11.57;57.63;101699.41;94102;1196;93693;-69
2021/10/07 06:49:29;;;;;;;12.40;8.10;;;;;;;11.76;57.33;101706.08;94126;1196;78998;-69
2021/10/07 06:51:33;;;;;;;11.30;7.50;;;;;;;11.88;57.02;101707.24;94103;1196;80648;-67
2021/10/07 06:53:38;;;;;;;9.30;7.30;;;;;;;11.92;56.87;101706.52;94108;1195;98767;-67
2021/10/07 06:55:46;;;;;;;12.60;8.00;;;;;;;11.97;56.80;101712.10;94094;1196;87418;-67
2021/10/07 06:57:53;;;;;;;12.90;7.80;;;;;;;12.00;56.60;101710.09;94136;1196;94123;-67
2021/10/07 06:59:57;;;;;;;10.20;7.50;;;;;;;12.10;56.49;101714.40;94127;1195;79881;-70
2021/10/07 07:02:01;;;;;;;12.50;7.10;;;;;;;12.09;56.06;101716.13;94113;1195;81261;-70
2021/10/07 07:04:06;;;;;;;12.10;7.60;;;;;;;12.15;56.13;101716.27;94159;1195;97665;-70
2021/10/07 07:06:10;;;;;;;11.00;7.00;;;;;;;12.24;56.33;101723.55;94090;1195;86869;-70
2021/10/07 07:08:14;;;;;;;11.50;7.30;;;;;;;12.39;56.39;101719.27;94085;1196;94960;-70
2021/10/07 07:10:19;;;;;;;11.50;7.50;;;;;;;12.56;56.02;101721.81;94117;1195;78262;-70
2021/10/07 07:12:23;;;;;;;11.90;7.30;;;;;;;12.57;55.67;101726.36;94211;1195;81250;-70
2021/10/07 07:14:27;;;;;;;10.00;7.60;;;;;;;12.51;55.22;101726.73;94090;1196;99184;-68
2021/10/07 07:16:34;;;;;;;10.00;6.50;;;;;;;12.50;55.23;101727.30;94100;1195;87830;-72
2021/10/07 07:18:40;;;;;;;11.40;7.50;;;;;;;12.52;55.13;101724.05;94079;1196;93015;-70
2021/10/07 07:20:44;;;;;;;12.70;8.00;;;;;;;12.62;55.13;101724.55;94159;1195;79412;-70
2021/10/07 07:22:48;;;;;;;11.30;7.30;;;;;;;12.72;55.06;101725.77;93828;1196;80580;-69
2021/10/07 07:24:56;;;;;;;10.60;7.70;;;;;;;12.85;54.81;101726.57;94165;1195;99297;-69
2021/10/07 07:27:00;;;;;;;9.00;7.20;;;;;;;12.86;54.47;101730.66;94090;1195;88275;-69
2021/10/07 07:29:07;;;;;;;13.30;7.40;;;;;;;13.02;54.56;101730.85;94133;1196;92635;-70
2021/10/07 07:31:12;;;;;;;16.50;8.30;;;;;;;13.21;54.17;101728.42;94108;1195;80009;-70
2021/10/07 07:33:17;;;;;;;11.40;7.40;;;;;;;13.29;54.02;101727.95;94126;1195;82347;-69
2021/10/07 07:35:22;;;;;;;14.10;7.80;;;;;;;13.41;53.72;101731.81;94113;1195;100394;-70
2021/10/07 07:37:29;;;;;;;12.20;7.20;;;;;;;13.69;53.83;101723.73;94133;1195;87476;-69
2021/10/07 07:39:37;;;;;;;11.20;7.30;;;;;;;13.85;53.53;101723.80;94153;1196;93714;-70
2021/10/07 07:41:41;;;;;;;12.80;6.90;;;;;;;13.93;53.12;101723.05;94178;1195;79414;-70
2021/10/07 07:43:46;;;;;;;12.70;7.30;;;;;;;14.19;52.61;101725.91;94135;1195;80837;-70
2021/10/07 07:45:52;;;;;;;11.70;6.50;;;;;;;14.11;52.08;101732.71;94136;1196;99150;-70
2021/10/07 07:47:57;;;;;;;11.60;7.80;;;;;;;13.92;52.04;101727.84;94071;1195;88320;-69
2021/10/07 07:50:01;;;;;;;16.40;6.80;;;;;;;13.91;52.31;101729.48;94153;1196;93615;-70
2021/10/07 07:52:10;;;;;;;12.30;6.90;;;;;;;13.75;51.77;101735.77;94116;1195;80146;-69
2021/10/07 07:54:14;;;;;;;14.30;6.80;;;;;;;13.95;52.09;101733.79;94192;1195;82170;-69
2021/10/07 07:56:21;;;;;;;15.30;7.90;;;;;;;14.21;51.57;101737.80;94154;1195;99672;-70
2021/10/07 07:58:25;;;;;;;11.60;6.80;;;;;;;14.65;51.19;101739.13;94136;1195;86379;-71
2021/10/07 08:00:30;;;;;;;13.30;6.70;;;;;;;15.26;50.45;101738.94;94104;1195;93227;-70
2021/10/07 08:02:35;;;;;;;12.60;6.90;;;;;;;15.98;49.76;101737.13;94072;1195;78956;-70
2021/10/07 08:04:39;;;;;;;10.80;7.40;;;;;;;16.53;49.24;101744.44;94129;1195;82584;-71
2021/10/07 08:06:43;;;;;;;11.70;6.30;;;;;;;17.50;48.12;101743.63;94116;1195;99238;-69
2021/10/07 08:08:48;;;;;;;14.00;6.50;;;;;;;18.38;47.24;101741.52;94137;1195;87777;-70
2021/10/07 08:10:55;;;;;;;14.80;7.20;;;;;;;19.00;46.10;101740.02;94101;1196;94572;-70
2021/10/07 08:13:00;;;;;;;10.80;6.00;;;;;;;19.30;45.12;101742.77;94105;1195;78169;-70
2021/10/07 08:15:08;;;;;;;13.80;5.80;;;;;;;19.74;45.04;101743.55;94163;1195;81070;-71
2021/10/07 08:17:14;;;;;;;11.30;6.80;;;;;;;19.67;42.58;101742.93;94141;1196;100062;-70
2021/10/07 08:19:22;;;;;;;12.90;6.30;;;;;;;18.72;42.39;101742.58;94132;1196;87231;-70
2021/10/07 08:21:27;;;;;;;8.60;5.70;;;;;;;17.91;43.18;101741.63;94155;1195;94350;-71
2021/10/07 08:23:36;;;;;;;9.80;5.80;;;;;;;17.14;43.41;101744.88;94090;1196;79776;-72
2021/10/07 08:25:41;;;;;;;10.50;6.30;;;;;;;16.77;44.12;101746.79;94124;1195;80743;-71
2021/10/07 08:27:47;;;;;;;13.60;6.90;;;;;;;16.68;44.64;101746.10;94134;1195;99136;-72
2021/10/07 08:29:51;;;;;;;9.80;6.20;;;;;;;16.62;44.88;101749.41;94065;1195;88035;-70
2021/10/07 08:31:56;;;;;;;8.60;6.20;;;;;;;16.55;44.87;101747.83;94133;1196;94170;-71
2021/10/07 08:34:01;;;;;;;13.20;6.30;;;;;;;16.25;44.98;101746.27;94107;1195;78111;-73
2021/10/07 08:36:06;;;;;;;13.00;7.20;;;;;;;15.91;45.45;101748.77;94093;1195;81275;-73
2021/10/07 08:38:10;;;;;;;9.30;6.10;;;;;;;15.72;46.01;101754.04;94094;1195;99587;-75
2021/10/07 08:40:15;;;;;;;9.30;6.30;;;;;;;15.46;45.95;101754.17;94129;1196;86264;-69
2021/10/07 08:42:20;;;;;;;8.70;6.00;;;;;;;15.28;46.43;101751.35;94160;1196;92641;-70
2021/10/07 08:44:25;;;;;;;13.30;6.60;;;;;;;15.24;46.60;101751.08;94142;1195;80422;-71
2021/10/07 08:46:29;;;;;;;10.70;6.10;;;;;;;15.15;47.09;101753.66;94135;1195;81100;-69
2021/10/07 08:48:36;;;;;;;11.60;6.80;;;;;;;15.09;47.26;101752.05;94158;1196;100001;-70
2021/10/07 08:50:40;;;;;;;14.10;6.10;;;;;;;15.02;47.05;101750.21;94164;1195;85516;-67
2021/10/07 08:52:45;;;;;;;13.50;6.50;;;;;;;14.96;47.44;101748.24;94138;1195;94664;-68
2021/10/07 08:54:51;;;;;;;10.40;5.90;;;;;;;15.09;47.58;101748.58;94144;1195;79035;-70
2021/10/07 08:56:55;;;;;;;11.40;6.60;;;;;;;15.15;47.86;101750.63;94127;1195;82622;-71
2021/10/07 08:59:01;;;;;;;15.50;7.10;;;;;;;15.15;47.73;101756.34;94136;1195;100015;-72
2021/10/07 09:01:06;;;;;;;11.70;8.10;;;;;;;15.16;47.77;101755.30;94121;1196;88048;-70
2021/10/07 09:03:22;;;;;;;13.40;6.60;;;;;;;15.15;47.72;101755.42;94155;1196;94277;-70
2021/10/07 09:05:30;;;;;;;16.00;7.40;;;;;;;15.31;47.90;101756.62;94150;1195;79668;-72
2021/10/07 09:07:34;;;;;;;9.40;5.60;;;;;;;15.53;47.84;101756.04;94106;1195;81877;-70
2021/10/07 09:09:41;;;;;;;11.70;5.90;;;;;;;15.88;47.74;101755.33;94158;1195;98357;-69
2021/10/07 09:11:52;;;;;;;9.10;5.90;;;;;;;16.38;47.63;101753.13;94150;1189;87473;-72
2021/10/07 09:14:03;;;;;;;12.30;6.10;;;;;;;16.82;47.43;101755.23;94194;1195;95527;-72
2021/10/07 09:16:07;;;;;;;9.20;6.30;;;;;;;17.14;46.97;101751.89;94128;1195;78503;-71
2021/10/07 09:18:12;;;;;;;12.90;5.90;;;;;;;17.39;46.17;101752.15;93806;1196;81122;-69
2021/10/07 09:20:33;;;;;;;14.60;6.70;;;;;;;17.68;46.36;101752.50;94151;1195;99457;-71
2021/10/07 09:22:48;;;;;;;10.10;6.10;;;;;;;18.64;46.06;101745.86;94181;1196;87895;-72
2021/10/07 09:24:55;;;;;;;9.40;6.10;;;;;;;19.28;45.05;101744.16;94142;1195;92582;-70
2021/10/07 09:27:13;;;;;;;16.50;6.00;;;;;;;19.78;44.03;101748.09;94148;1195;78679;-71
2021/10/07 09:29:29;;;;;;;14.80;6.80;;;;;;;20.00;42.30;101743.52;94188;1195;80864;-68
2021/10/07 09:31:36;;;;;;;11.70;5.70;;;;;;;19.96;42.12;101745.23;94101;1195;99816;-69
2021/10/07 09:33:44;;;;;;;9.30;5.70;;;;;;;19.89;42.14;101751.59;94069;1196;88818;-69
2021/10/07 09:35:48;;;;;;;12.60;5.70;;;;;;;19.63;42.02;101751.14;94149;1196;93427;-72
2021/10/07 09:37:56;;;;;;;12.00;5.40;;;;;;;19.47;41.96;101753.30;94135;1195;79383;-72
2021/10/07 09:40:09;;;;;;;9.30;5.80;;;;;;;19.61;41.90;101750.64;94105;1196;82212;-73
2021/10/07 09:42:19;;;;;;;10.60;6.00;;;;;;;19.86;41.93;101749.37;94114;1195;98363;-74
2021/10/07 09:44:24;;;;;;;10.80;5.30;;;;;;;20.07;41.28;101750.02;94176;1196;87467;-72